createdAt,value
2016-05-18T00:00:00.913Z,15.05
2016-05-18T00:00:57.994Z,15.07
2016-05-18T00:01:54.621Z,15.05
2016-05-18T00:02:54.719Z,15.08
2016-05-18T00:04:00.861Z,14.97
2016-05-18T00:04:54.630Z,15.04
2016-05-18T00:05:54.555Z,15.04
2016-05-18T00:07:03.653Z,15.05
2016-05-18T00:08:09.327Z,15
2016-05-18T00:09:06.627Z,14.92
2016-05-18T00:09:57.362Z,14.93
2016-05-18T00:10:57.333Z,14.97
2016-05-18T00:12:06.276Z,14.92
2016-05-18T00:12:57.057Z,14.92
2016-05-18T00:13:54.169Z,14.87
2016-05-18T00:14:57.141Z,14.85
2016-05-18T00:15:54.065Z,14.82
2016-05-18T00:16:57.037Z,14.78
2016-05-18T00:17:53.977Z,14.74
2016-05-18T00:18:56.949Z,14.71
2016-05-18T00:19:56.732Z,14.86
2016-05-18T00:20:56.829Z,14.78
2016-05-18T00:21:53.784Z,14.79
2016-05-18T00:22:53.818Z,14.74
2016-05-18T00:23:53.712Z,14.86
2016-05-18T00:24:53.652Z,14.78
2016-05-18T00:25:53.812Z,14.81
2016-05-18T00:26:56.564Z,14.74
2016-05-18T00:27:53.535Z,14.77
2016-05-18T00:28:53.491Z,14.77
2016-05-18T00:29:53.431Z,14.77
2016-05-18T00:30:53.387Z,14.86
2016-05-18T00:31:53.233Z,14.7
2016-05-18T00:32:56.237Z,14.78
2016-05-18T00:33:56.255Z,14.87
2016-05-18T00:34:56.163Z,14.93
2016-05-18T00:35:53.119Z,14.89
2016-05-18T00:36:56.060Z,14.87
2016-05-18T00:37:56.062Z,14.9
2016-05-18T00:38:55.972Z,14.89
2016-05-18T00:39:59.146Z,14.96
2016-05-18T00:40:52.788Z,14.92
2016-05-18T00:41:58.683Z,14.93
2016-05-18T00:42:58.982Z,14.86
2016-05-18T00:43:56.062Z,14.87
2016-05-18T00:44:52.675Z,14.86
2016-05-18T00:45:58.865Z,14.87
2016-05-18T00:46:58.587Z,14.9
2016-05-18T00:47:58.401Z,14.9
2016-05-18T00:48:55.357Z,14.87
2016-05-18T00:49:55.453Z,14.77
2016-05-18T00:50:55.394Z,14.77
2016-05-18T00:51:52.537Z,14.78
2016-05-18T00:52:52.478Z,14.78
2016-05-18T00:53:52.652Z,14.79
2016-05-18T00:54:55.076Z,14.79
2016-05-18T00:55:52.142Z,14.7
2016-05-18T00:56:54.941Z,14.71
2016-05-18T00:57:55.053Z,14.71
2016-05-18T00:58:55.056Z,14.71
2016-05-18T00:59:57.981Z,14.71
2016-05-18T01:00:54.749Z,14.85
2016-05-18T01:01:54.705Z,14.85
2016-05-18T01:02:52.223Z,14.82
2016-05-18T01:03:51.850Z,14.87
2016-05-18T01:04:51.713Z,14.89
2016-05-18T01:05:57.669Z,14.89
2016-05-18T01:06:54.469Z,14.9
2016-05-18T01:07:54.643Z,14.89
2016-05-18T01:08:54.521Z,14.87
2016-05-18T01:09:51.477Z,14.71
2016-05-18T01:10:51.416Z,14.77
2016-05-18T01:11:51.529Z,14.77
2016-05-18T01:12:54.359Z,14.77
2016-05-18T01:13:51.128Z,14.81
2016-05-18T01:14:54.240Z,14.79
2016-05-18T01:15:51.382Z,14.9
2016-05-18T01:16:51.198Z,14.9
2016-05-18T01:17:54.310Z,14.92
2016-05-18T01:18:50.907Z,14.82
2016-05-18T01:19:54.018Z,14.86
2016-05-18T01:20:56.960Z,14.77
2016-05-18T01:21:56.743Z,14.79
2016-05-18T01:22:50.887Z,14.74
2016-05-18T01:23:50.842Z,14.82
2016-05-18T01:24:50.594Z,14.78
2016-05-18T01:25:56.426Z,14.74
2016-05-18T01:26:53.662Z,14.73
2016-05-18T01:27:53.603Z,14.71
2016-05-18T01:28:53.778Z,14.79
2016-05-18T01:29:50.530Z,14.73
2016-05-18T01:30:50.767Z,14.74
2016-05-18T01:31:50.613Z,14.77
2016-05-18T01:32:57.070Z,14.81
2016-05-18T01:33:50.306Z,14.77
2016-05-18T01:34:53.278Z,14.85
2016-05-18T01:35:53.233Z,14.81
2016-05-18T01:36:50.174Z,14.93
2016-05-18T01:37:54.005Z,14.96
2016-05-18T01:38:53.288Z,14.92
2016-05-18T01:39:49.869Z,14.9
2016-05-18T01:40:52.982Z,14.81
2016-05-18T01:41:52.813Z,14.87
2016-05-18T01:42:49.877Z,14.93
2016-05-18T01:43:49.833Z,14.85
2016-05-18T01:44:49.836Z,14.9
2016-05-18T01:45:55.948Z,14.9
2016-05-18T01:46:52.685Z,14.73
2016-05-18T01:47:53.079Z,14.77
2016-05-18T01:48:49.629Z,14.81
2016-05-18T01:49:55.412Z,14.78
2016-05-18T01:50:52.602Z,14.73
2016-05-18T01:51:49.854Z,14.73
2016-05-18T01:52:49.404Z,14.79
2016-05-18T01:53:49.204Z,14.82
2016-05-18T01:54:49.519Z,14.78
2016-05-18T01:55:49.240Z,14.81
2016-05-18T01:56:49.228Z,14.71
2016-05-18T01:57:52.012Z,14.73
2016-05-18T01:58:49.108Z,14.77
2016-05-18T01:59:49.064Z,14.77
2016-05-18T02:00:48.848Z,14.68
2016-05-18T02:01:52.366Z,14.59
2016-05-18T02:02:49.104Z,14.63
2016-05-18T02:03:51.872Z,14.63
2016-05-18T02:04:52.030Z,14.67
2016-05-18T02:05:57.830Z,14.7
2016-05-18T02:06:48.723Z,14.67
2016-05-18T02:07:51.804Z,14.61
2016-05-18T02:08:51.650Z,14.67
2016-05-18T02:09:48.560Z,14.62
2016-05-18T02:10:48.530Z,14.68
2016-05-18T02:11:51.472Z,14.71
2016-05-18T02:12:48.427Z,14.62
2016-05-18T02:13:51.226Z,14.63
2016-05-18T02:14:54.339Z,14.63
2016-05-18T02:15:51.810Z,14.68
2016-05-18T02:17:00.313Z,14.71
2016-05-18T02:17:51.190Z,14.67
2016-05-18T02:18:57.162Z,14.74
2016-05-18T02:19:48.118Z,14.79
2016-05-18T02:20:51.057Z,14.79
2016-05-18T02:21:51.060Z,14.71
2016-05-18T02:22:51.688Z,14.77
2016-05-18T02:23:47.910Z,14.78
2016-05-18T02:24:47.896Z,14.73
2016-05-18T02:25:47.806Z,14.82
2016-05-18T02:26:50.777Z,14.73
2016-05-18T02:27:47.920Z,14.73
2016-05-18T02:28:47.720Z,14.71
2016-05-18T02:29:48.128Z,14.73
2016-05-18T02:30:50.710Z,14.7
2016-05-18T02:31:47.494Z,14.78
2016-05-18T02:32:50.481Z,14.73
2016-05-18T02:33:50.405Z,14.71
2016-05-18T02:34:47.392Z,14.77
2016-05-18T02:35:53.348Z,14.71
2016-05-18T02:36:47.336Z,14.77
2016-05-18T02:37:47.088Z,14.74
2016-05-18T02:38:50.216Z,14.77
2016-05-18T02:39:50.141Z,14.74
2016-05-18T02:40:50.080Z,14.62
2016-05-18T02:41:52.896Z,14.61
2016-05-18T02:42:46.992Z,14.7
2016-05-18T02:43:46.963Z,14.63
2016-05-18T02:44:46.888Z,14.66
2016-05-18T02:45:49.843Z,14.67
2016-05-18T02:46:47.019Z,14.61
2016-05-18T02:47:46.740Z,14.66
2016-05-18T02:48:46.696Z,14.63
2016-05-18T02:49:59.120Z,14.66
2016-05-18T02:50:46.436Z,14.59
2016-05-18T02:51:46.235Z,14.63
2016-05-18T02:52:49.534Z,14.66
2016-05-18T02:53:49.304Z,14.67
2016-05-18T02:54:46.415Z,14.67
2016-05-18T02:55:52.370Z,14.7
2016-05-18T02:56:46.529Z,14.62
2016-05-18T02:57:52.298Z,14.63
2016-05-18T02:58:46.410Z,14.67
2016-05-18T02:59:49.178Z,14.7
2016-05-18T03:00:49.384Z,14.74
2016-05-18T03:01:52.278Z,14.62
2016-05-18T03:02:48.873Z,14.63
2016-05-18T03:03:46.236Z,14.61
2016-05-18T03:04:49.051Z,14.62
2016-05-18T03:05:45.726Z,14.74
2016-05-18T03:06:45.838Z,14.66
2016-05-18T03:07:48.825Z,14.68
2016-05-18T03:08:51.780Z,14.66
2016-05-18T03:09:48.705Z,14.68
2016-05-18T03:10:51.677Z,14.61
2016-05-18T03:11:48.632Z,14.68
2016-05-18T03:12:51.792Z,14.62
2016-05-18T03:13:54.528Z,14.59
2016-05-18T03:14:48.890Z,14.68
2016-05-18T03:15:51.455Z,14.63
2016-05-18T03:16:57.208Z,14.56
2016-05-18T03:17:51.508Z,14.44
2016-05-18T03:18:48.276Z,14.52
2016-05-18T03:19:54.233Z,14.53
2016-05-18T03:20:48.579Z,14.45
2016-05-18T03:21:51.190Z,14.45
2016-05-18T03:22:54.131Z,14.43
2016-05-18T03:23:51.242Z,14.52
2016-05-18T03:24:54.152Z,14.48
2016-05-18T03:25:47.920Z,14.43
2016-05-18T03:26:51.485Z,14.41
2016-05-18T03:27:47.832Z,14.45
2016-05-18T03:28:45.178Z,14.37
2016-05-18T03:29:47.978Z,14.43
2016-05-18T03:30:47.668Z,14.44
2016-05-18T03:31:44.671Z,14.38
2016-05-18T03:32:47.595Z,14.4
2016-05-18T03:33:47.395Z,14.38
2016-05-18T03:34:44.491Z,14.41
2016-05-18T03:35:44.494Z,14.52
2016-05-18T03:36:47.403Z,14.43
2016-05-18T03:37:47.358Z,14.43
2016-05-18T03:38:47.300Z,14.43
2016-05-18T03:39:53.269Z,14.38
2016-05-18T03:40:47.022Z,14.44
2016-05-18T03:41:44.135Z,14.37
2016-05-18T03:42:44.091Z,14.37
2016-05-18T03:43:44.266Z,14.36
2016-05-18T03:44:44.034Z,14.36
2016-05-18T03:45:47.161Z,14.4
2016-05-18T03:46:46.774Z,14.4
2016-05-18T03:47:49.886Z,14.44
2016-05-18T03:48:43.826Z,14.38
2016-05-18T03:49:52.797Z,14.37
2016-05-18T03:50:46.738Z,14.45
2016-05-18T03:51:43.584Z,14.37
2016-05-18T03:52:46.493Z,14.4
2016-05-18T03:53:46.917Z,14.36
2016-05-18T03:54:52.249Z,14.44
2016-05-18T03:55:46.688Z,14.45
2016-05-18T03:56:43.269Z,14.44
2016-05-18T03:57:43.366Z,14.37
2016-05-18T03:58:43.540Z,14.45
2016-05-18T03:59:46.277Z,14.45
2016-05-18T04:00:43.108Z,14.55
2016-05-18T04:01:43.236Z,14.51
2016-05-18T04:02:43.645Z,14.52
2016-05-18T04:03:46.101Z,14.53
2016-05-18T04:04:49.056Z,14.48
2016-05-18T04:05:45.997Z,14.4
2016-05-18T04:06:42.796Z,14.37
2016-05-18T04:07:45.908Z,14.33
2016-05-18T04:08:45.989Z,14.31
2016-05-18T04:09:48.804Z,14.31
2016-05-18T04:10:48.666Z,14.33
2016-05-18T04:11:48.559Z,14.33
2016-05-18T04:12:45.703Z,14.31
2016-05-18T04:13:45.456Z,14.31
2016-05-18T04:14:48.817Z,14.33
2016-05-18T04:15:51.539Z,14.37
2016-05-18T04:16:42.729Z,14.36
2016-05-18T04:17:42.419Z,14.34
2016-05-18T04:18:45.360Z,14.36
2016-05-18T04:19:45.534Z,14.33
2016-05-18T04:20:48.131Z,14.36
2016-05-18T04:21:45.227Z,14.37
2016-05-18T04:22:45.168Z,14.31
2016-05-18T04:23:42.357Z,14.28
2016-05-18T04:24:45.110Z,14.44
2016-05-18T04:25:42.035Z,14.41
2016-05-18T04:26:41.974Z,14.41
2016-05-18T04:27:41.932Z,14.44
2016-05-18T04:28:42.059Z,14.44
2016-05-18T04:29:41.826Z,14.41
2016-05-18T04:30:41.782Z,14.43
2016-05-18T04:31:44.956Z,14.43
2016-05-18T04:32:41.694Z,14.43
2016-05-18T04:33:44.634Z,14.44
2016-05-18T04:34:44.606Z,14.44
2016-05-18T04:35:44.546Z,14.38
2016-05-18T04:36:41.690Z,14.44
2016-05-18T04:37:44.504Z,14.33
2016-05-18T04:38:44.414Z,14.4
2016-05-18T04:39:41.651Z,14.34
2016-05-18T04:40:41.309Z,14.4
2016-05-18T04:41:41.265Z,14.34
2016-05-18T04:42:47.424Z,14.4
2016-05-18T04:43:50.020Z,14.37
2016-05-18T04:44:40.945Z,14.36
2016-05-18T04:45:47.261Z,14.44
2016-05-18T04:46:50.028Z,14.43
2016-05-18T04:47:40.953Z,14.43
2016-05-18T04:48:43.752Z,14.4
2016-05-18T04:49:43.880Z,14.38
2016-05-18T04:50:43.836Z,14.38
2016-05-18T04:51:40.746Z,14.41
2016-05-18T04:52:43.561Z,14.4
2016-05-18T04:53:47.219Z,14.43
2016-05-18T04:54:43.629Z,14.43
2016-05-18T04:55:40.677Z,14.41
2016-05-18T04:56:49.571Z,14.38
2016-05-18T04:57:43.495Z,14.44
2016-05-18T04:58:48.093Z,14.38
2016-05-18T04:59:43.407Z,14.41
2016-05-18T05:00:40.332Z,14.53
2016-05-18T05:01:40.788Z,14.59
2016-05-18T05:02:43.431Z,14.48
2016-05-18T05:03:43.106Z,14.49
2016-05-18T05:04:46.139Z,14.49
2016-05-18T05:05:40.095Z,14.49
2016-05-18T05:06:46.051Z,14.55
2016-05-18T05:07:43.209Z,14.45
2016-05-18T05:08:42.884Z,14.44
2016-05-18T05:09:39.904Z,14.52
2016-05-18T05:10:39.874Z,14.48
2016-05-18T05:11:39.642Z,14.55
2016-05-18T05:12:39.614Z,14.49
2016-05-18T05:13:39.914Z,14.52
2016-05-18T05:14:39.744Z,14.49
2016-05-18T05:15:40.060Z,14.45
2016-05-18T05:16:39.609Z,14.52
2016-05-18T05:17:39.706Z,14.49
2016-05-18T05:18:39.319Z,14.51
2016-05-18T05:19:39.617Z,14.44
2016-05-18T05:20:42.385Z,14.44
2016-05-18T05:21:39.310Z,14.43
2016-05-18T05:22:39.625Z,14.45
2016-05-18T05:23:42.222Z,14.45
2016-05-18T05:24:39.397Z,14.58
2016-05-18T05:25:45.133Z,14.59
2016-05-18T05:26:45.090Z,14.59
2016-05-18T05:27:42.388Z,14.58
2016-05-18T05:28:38.971Z,14.63
2016-05-18T05:29:39.176Z,14.73
2016-05-18T05:30:42.084Z,14.67
2016-05-18T05:31:50.712Z,14.67
2016-05-18T05:32:42.184Z,14.66
2016-05-18T05:33:45.390Z,14.74
2016-05-18T05:34:44.704Z,14.78
2016-05-18T05:35:39.035Z,14.71
2016-05-18T05:36:38.444Z,14.77
2016-05-18T05:37:44.651Z,14.77
2016-05-18T05:38:44.387Z,14.71
2016-05-18T05:39:41.468Z,14.74
2016-05-18T05:40:47.440Z,14.74
2016-05-18T05:41:44.583Z,14.74
2016-05-18T05:42:47.336Z,14.77
2016-05-18T05:43:41.244Z,14.77
2016-05-18T05:44:41.263Z,14.78
2016-05-18T05:45:41.375Z,14.86
2016-05-18T05:46:43.971Z,14.85
2016-05-18T05:47:47.349Z,14.93
2016-05-18T05:48:38.024Z,15.04
2016-05-18T05:49:50.041Z,14.99
2016-05-18T05:50:40.950Z,14.97
2016-05-18T05:51:43.891Z,14.97
2016-05-18T05:52:43.987Z,14.94
2016-05-18T05:53:38.255Z,14.89
2016-05-18T05:54:40.790Z,14.96
2016-05-18T05:55:37.683Z,14.93
2016-05-18T05:56:37.639Z,14.97
2016-05-18T05:57:37.564Z,14.94
2016-05-18T05:58:37.394Z,14.92
2016-05-18T05:59:37.474Z,14.89
2016-05-18T06:00:37.415Z,14.99
2016-05-18T06:01:37.230Z,15
2016-05-18T06:02:40.343Z,14.96
2016-05-18T06:03:40.720Z,14.97
2016-05-18T06:04:37.754Z,15
2016-05-18T06:05:40.601Z,15.07
2016-05-18T06:06:39.728Z,15.04
2016-05-18T06:07:40.106Z,14.99
2016-05-18T06:08:40.734Z,15.07
2016-05-18T06:09:37.470Z,14.99
2016-05-18T06:10:49.067Z,15.02
2016-05-18T06:11:39.898Z,15.22
2016-05-18T06:12:42.900Z,15.3
2016-05-18T06:13:37.184Z,15.27
2016-05-18T06:14:49.093Z,15.29
2016-05-18T06:15:39.392Z,15.32
2016-05-18T06:16:39.881Z,15.33
2016-05-18T06:17:39.961Z,15.41
2016-05-18T06:18:39.682Z,15.32
2016-05-18T06:19:39.778Z,15.43
2016-05-18T06:20:39.719Z,15.41
2016-05-18T06:21:39.503Z,15.43
2016-05-18T06:22:39.677Z,15.39
2016-05-18T06:23:38.477Z,15.35
2016-05-18T06:24:36.574Z,15.44
2016-05-18T06:25:39.451Z,15.44
2016-05-18T06:26:39.766Z,15.41
2016-05-18T06:27:35.988Z,15.44
2016-05-18T06:28:38.974Z,15.41
2016-05-18T06:29:39.368Z,15.41
2016-05-18T06:30:43.387Z,15.41
2016-05-18T06:31:41.982Z,15.41
2016-05-18T06:32:38.907Z,15.39
2016-05-18T06:33:39.113Z,15.39
2016-05-18T06:34:42.132Z,15.47
2016-05-18T06:35:35.916Z,15.48
2016-05-18T06:36:38.762Z,15.45
2016-05-18T06:37:44.531Z,15.51
2016-05-18T06:38:39.126Z,15.54
2016-05-18T06:39:35.770Z,15.52
2016-05-18T06:40:36.492Z,15.55
2016-05-18T06:41:38.698Z,15.41
2016-05-18T06:42:35.434Z,15.54
2016-05-18T06:43:38.436Z,15.47
2016-05-18T06:44:35.392Z,15.43
2016-05-18T06:45:35.848Z,15.48
2016-05-18T06:46:38.461Z,15.48
2016-05-18T06:47:35.213Z,15.51
2016-05-18T06:48:34.998Z,15.55
2016-05-18T06:49:35.313Z,15.54
2016-05-18T06:50:35.769Z,15.57
2016-05-18T06:51:38.022Z,15.62
2016-05-18T06:52:34.977Z,15.66
2016-05-18T06:53:34.980Z,15.75
2016-05-18T06:54:34.873Z,15.7
2016-05-18T06:55:34.641Z,15.65
2016-05-18T06:56:34.675Z,15.73
2016-05-18T06:57:34.741Z,15.72
2016-05-18T06:58:34.883Z,15.75
2016-05-18T06:59:34.715Z,15.69
2016-05-18T07:00:35.452Z,15.72
2016-05-18T07:01:34.548Z,15.7
2016-05-18T07:02:37.582Z,15.69
2016-05-18T07:03:37.444Z,15.55
2016-05-18T07:04:37.399Z,15.57
2016-05-18T07:05:35.262Z,15.69
2016-05-18T07:06:37.296Z,15.65
2016-05-18T07:07:40.267Z,15.73
2016-05-18T07:08:34.551Z,15.73
2016-05-18T07:09:37.554Z,15.8
2016-05-18T07:10:41.541Z,15.76
2016-05-18T07:11:40.168Z,15.75
2016-05-18T07:12:34.109Z,15.84
2016-05-18T07:13:46.033Z,15.78
2016-05-18T07:14:36.802Z,15.87
2016-05-18T07:15:34.273Z,15.96
2016-05-18T07:16:39.901Z,16.05
2016-05-18T07:17:33.778Z,16.1
2016-05-18T07:18:33.953Z,16.16
2016-05-18T07:19:37.003Z,16.17
2016-05-18T07:20:40.177Z,16.28
2016-05-18T07:21:33.617Z,16.32
2016-05-18T07:22:43.714Z,16.4
2016-05-18T07:23:37.075Z,16.47
2016-05-18T07:24:33.438Z,16.46
2016-05-18T07:25:37.910Z,16.55
2016-05-18T07:26:42.397Z,16.51
2016-05-18T07:27:33.305Z,16.55
2016-05-18T07:28:34.058Z,16.5
2016-05-18T07:29:45.436Z,16.59
2016-05-18T07:30:37.017Z,16.61
2016-05-18T07:31:33.458Z,16.58
2016-05-18T07:32:33.069Z,16.64
2016-05-18T07:33:35.915Z,16.64
2016-05-18T07:34:32.965Z,16.61
2016-05-18T07:35:32.812Z,16.66
2016-05-18T07:36:32.940Z,16.72
2016-05-18T07:37:35.832Z,16.74
2016-05-18T07:38:36.226Z,16.65
2016-05-18T07:39:32.618Z,16.79
2016-05-18T07:40:32.763Z,16.74
2016-05-18T07:41:35.656Z,16.8
2016-05-18T07:42:32.627Z,16.8
2016-05-18T07:43:32.629Z,16.86
2016-05-18T07:44:35.461Z,16.92
2016-05-18T07:45:32.464Z,16.83
2016-05-18T07:46:35.467Z,16.95
2016-05-18T07:47:38.406Z,17.07
2016-05-18T07:48:32.331Z,17.02
2016-05-18T07:49:35.145Z,17.12
2016-05-18T07:50:32.242Z,17.2
2016-05-18T07:51:32.511Z,17.22
2016-05-18T07:52:35.153Z,17.16
2016-05-18T07:53:34.953Z,17.24
2016-05-18T07:54:34.956Z,17.27
2016-05-18T07:55:32.053Z,17.2
2016-05-18T07:56:31.977Z,17.2
2016-05-18T07:57:31.871Z,17.24
2016-05-18T07:58:31.873Z,17.24
2016-05-18T07:59:32.017Z,17.22
2016-05-18T08:00:32.083Z,17.2
2016-05-18T08:01:34.585Z,17.27
2016-05-18T08:02:31.869Z,17.32
2016-05-18T08:03:37.496Z,17.27
2016-05-18T08:04:34.796Z,17.3
2016-05-18T08:05:31.533Z,17.27
2016-05-18T08:06:31.441Z,17.22
2016-05-18T08:07:31.476Z,17.14
2016-05-18T08:08:31.822Z,17.14
2016-05-18T08:09:31.357Z,17.13
2016-05-18T08:10:31.327Z,17.13
2016-05-18T08:11:31.315Z,17.12
2016-05-18T08:12:34.067Z,17.1
2016-05-18T08:13:31.195Z,17.04
2016-05-18T08:14:31.135Z,17.22
2016-05-18T08:15:31.075Z,17.24
2016-05-18T08:16:40.093Z,17.23
2016-05-18T08:17:31.017Z,17.27
2016-05-18T08:18:31.114Z,17.3
2016-05-18T08:19:33.898Z,17.38
2016-05-18T08:20:30.901Z,17.41
2016-05-18T08:21:33.654Z,17.57
2016-05-18T08:22:40.298Z,17.63
2016-05-18T08:23:33.659Z,17.66
2016-05-18T08:24:30.678Z,17.68
2016-05-18T08:25:31.290Z,17.68
2016-05-18T08:26:33.683Z,17.63
2016-05-18T08:27:30.821Z,17.75
2016-05-18T08:28:30.414Z,17.76
2016-05-18T08:29:30.598Z,17.76
2016-05-18T08:30:34.581Z,17.88
2016-05-18T08:31:30.532Z,17.95
2016-05-18T08:32:33.570Z,17.95
2016-05-18T08:33:30.682Z,18.06
2016-05-18T08:34:34.138Z,18.02
2016-05-18T08:35:34.249Z,18.08
2016-05-18T08:36:30.409Z,18.21
2016-05-18T08:37:30.377Z,18.12
2016-05-18T08:38:31.104Z,18.21
2016-05-18T08:39:30.502Z,18.26
2016-05-18T08:40:30.338Z,18.34
2016-05-18T08:41:30.237Z,18.28
2016-05-18T08:42:30.386Z,18.36
2016-05-18T08:43:31.297Z,18.36
2016-05-18T08:44:30.130Z,18.34
2016-05-18T08:45:30.119Z,18.23
2016-05-18T08:46:29.828Z,18.33
2016-05-18T08:47:29.863Z,18.33
2016-05-18T08:48:29.945Z,18.34
2016-05-18T08:49:29.885Z,18.42
2016-05-18T08:50:39.529Z,18.51
2016-05-18T08:51:29.752Z,18.53
2016-05-18T08:52:32.724Z,18.57
2016-05-18T08:53:29.539Z,18.7
2016-05-18T08:54:29.636Z,18.7
2016-05-18T08:55:29.420Z,18.74
2016-05-18T08:56:32.610Z,18.86
2016-05-18T08:57:29.706Z,18.86
2016-05-18T08:58:29.474Z,18.86
2016-05-18T08:59:32.461Z,18.97
2016-05-18T09:00:29.371Z,18.96
2016-05-18T09:01:29.388Z,18.98
2016-05-18T09:02:29.329Z,19.04
2016-05-18T09:03:29.300Z,18.96
2016-05-18T09:04:29.163Z,18.98
2016-05-18T09:05:29.493Z,18.97
2016-05-18T09:06:28.996Z,18.86
2016-05-18T09:07:29.310Z,18.76
2016-05-18T09:08:29.298Z,18.76
2016-05-18T09:09:28.941Z,18.79
2016-05-18T09:10:28.913Z,18.81
2016-05-18T09:11:29.040Z,18.67
2016-05-18T09:12:28.856Z,18.83
2016-05-18T09:13:28.968Z,18.96
2016-05-18T09:14:28.564Z,18.86
2016-05-18T09:15:28.692Z,18.82
2016-05-18T09:16:31.679Z,18.94
2016-05-18T09:17:28.604Z,18.96
2016-05-18T09:18:28.950Z,19.05
2016-05-18T09:19:28.547Z,19.22
2016-05-18T09:20:28.674Z,19.2
2016-05-18T09:21:28.411Z,19.34
2016-05-18T09:22:31.789Z,19.41
2016-05-18T09:23:37.401Z,19.42
2016-05-18T09:24:31.278Z,19.47
2016-05-18T09:25:28.141Z,19.47
2016-05-18T09:26:28.191Z,19.56
2016-05-18T09:27:40.614Z,19.62
2016-05-18T09:28:34.555Z,19.59
2016-05-18T09:29:28.026Z,19.45
2016-05-18T09:30:27.997Z,19.52
2016-05-18T09:31:30.813Z,19.37
2016-05-18T09:32:28.503Z,19.41
2016-05-18T09:33:31.084Z,19.42
2016-05-18T09:34:27.696Z,19.42
2016-05-18T09:35:27.871Z,19.32
2016-05-18T09:36:27.951Z,19.38
2016-05-18T09:37:30.688Z,19.34
2016-05-18T09:38:27.816Z,19.35
2016-05-18T09:39:30.694Z,19.42
2016-05-18T09:40:27.587Z,19.48
2016-05-18T09:41:33.746Z,19.49
2016-05-18T09:42:27.451Z,19.66
2016-05-18T09:43:30.423Z,19.74
2016-05-18T09:44:30.395Z,19.77
2016-05-18T09:45:27.320Z,19.71
2016-05-18T09:46:33.165Z,19.64
2016-05-18T09:47:27.087Z,19.57
2016-05-18T09:48:27.187Z,19.42
2016-05-18T09:49:30.173Z,19.41
2016-05-18T09:50:27.127Z,19.34
2016-05-18T09:51:27.289Z,19.34
2016-05-18T09:52:27.101Z,19.29
2016-05-18T09:53:27.341Z,19.17
2016-05-18T09:54:26.888Z,19.2
2016-05-18T09:55:29.925Z,19.2
2016-05-18T09:56:26.847Z,19.16
2016-05-18T09:57:26.803Z,19.05
2016-05-18T09:58:33.277Z,19.05
2016-05-18T09:59:26.589Z,18.96
2016-05-18T10:00:29.703Z,19.07
2016-05-18T10:01:26.688Z,18.97
2016-05-18T10:02:28.725Z,18.94
2016-05-18T10:03:26.522Z,18.81
2016-05-18T10:04:26.461Z,18.85
2016-05-18T10:05:29.639Z,18.73
2016-05-18T10:06:26.717Z,18.81
2016-05-18T10:07:26.329Z,18.71
2016-05-18T10:08:26.176Z,18.64
2016-05-18T10:09:32.337Z,18.73
2016-05-18T10:10:32.434Z,18.74
2016-05-18T10:11:26.152Z,18.67
2016-05-18T10:12:26.515Z,18.64
2016-05-18T10:13:25.923Z,18.63
2016-05-18T10:14:29.460Z,18.57
2016-05-18T10:15:26.226Z,18.58
2016-05-18T10:16:52.262Z,18.51
2016-05-18T10:17:26.356Z,18.46
2016-05-18T10:18:26.249Z,18.48
2016-05-18T10:19:26.018Z,18.45
2016-05-18T10:20:26.426Z,18.41
2016-05-18T10:21:26.164Z,18.37
2016-05-18T10:22:28.700Z,18.39
2016-05-18T10:23:25.950Z,18.49
2016-05-18T10:24:25.640Z,18.46
2016-05-18T10:25:28.958Z,18.45
2016-05-18T10:26:28.523Z,18.48
2016-05-18T10:27:28.948Z,18.49
2016-05-18T10:28:34.497Z,18.42
2016-05-18T10:29:25.638Z,18.46
2016-05-18T10:30:25.391Z,18.46
2016-05-18T10:31:25.519Z,18.53
2016-05-18T10:32:31.289Z,18.66
2016-05-18T10:33:28.039Z,18.68
2016-05-18T10:34:30.092Z,18.68
2016-05-18T10:35:25.280Z,18.67
2016-05-18T10:36:28.064Z,18.76
2016-05-18T10:37:29.302Z,18.7
2016-05-18T10:38:25.271Z,18.83
2016-05-18T10:39:25.805Z,18.96
2016-05-18T10:40:25.058Z,19.11
2016-05-18T10:41:24.640Z,19.2
2016-05-18T10:42:28.424Z,19.37
2016-05-18T10:43:24.723Z,19.3
2016-05-18T10:44:24.679Z,19.27
2016-05-18T10:45:24.666Z,19.27
2016-05-18T10:46:24.574Z,19.3
2016-05-18T10:47:24.515Z,19.38
2016-05-18T10:48:24.471Z,19.52
2016-05-18T10:49:24.630Z,19.66
2016-05-18T10:50:27.382Z,19.81
2016-05-18T10:51:24.541Z,19.87
2016-05-18T10:52:24.591Z,19.94
2016-05-18T10:53:27.312Z,20
2016-05-18T10:54:24.206Z,20.11
2016-05-18T10:55:24.224Z,20.1
2016-05-18T10:56:24.336Z,20.11
2016-05-18T10:57:24.261Z,20.17
2016-05-18T10:58:27.045Z,20.17
2016-05-18T10:59:26.828Z,20.21
2016-05-18T11:00:26.800Z,20.19
2016-05-18T11:01:27.178Z,20.12
2016-05-18T11:02:27.118Z,20.14
2016-05-18T11:03:26.808Z,20.12
2016-05-18T11:04:24.061Z,19.96
2016-05-18T11:05:23.844Z,19.87
2016-05-18T11:06:27.066Z,19.75
2016-05-18T11:07:23.491Z,19.66
2016-05-18T11:08:23.744Z,19.62
2016-05-18T11:09:26.543Z,19.62
2016-05-18T11:10:26.701Z,19.48
2016-05-18T11:11:23.330Z,19.44
2016-05-18T11:12:23.457Z,19.55
2016-05-18T11:13:26.601Z,19.55
2016-05-18T11:14:26.369Z,19.39
2016-05-18T11:15:29.543Z,19.44
2016-05-18T11:16:23.233Z,19.45
2016-05-18T11:17:23.190Z,19.32
2016-05-18T11:18:23.192Z,19.3
2016-05-18T11:19:23.413Z,19.26
2016-05-18T11:20:25.900Z,19.16
2016-05-18T11:21:23.012Z,19.11
2016-05-18T11:22:27.421Z,19.07
2016-05-18T11:23:22.831Z,19.09
2016-05-18T11:24:22.880Z,19.04
2016-05-18T11:25:25.867Z,19.04
2016-05-18T11:26:22.776Z,19.08
2016-05-18T11:27:23.653Z,19.05
2016-05-18T11:28:22.720Z,19.11
2016-05-18T11:29:22.659Z,19.11
2016-05-18T11:30:22.474Z,19.15
2016-05-18T11:31:22.617Z,19.08
2016-05-18T11:32:22.542Z,19.11
2016-05-18T11:33:22.513Z,19.05
2016-05-18T11:34:22.563Z,19.08
2016-05-18T11:35:22.441Z,18.96
2016-05-18T11:36:22.413Z,19.05
2016-05-18T11:37:22.321Z,18.98
2016-05-18T11:38:23.011Z,19
2016-05-18T11:39:22.124Z,18.96
2016-05-18T11:40:28.298Z,18.97
2016-05-18T11:41:22.160Z,18.97
2016-05-18T11:42:22.069Z,18.96
2016-05-18T11:43:22.228Z,18.91
2016-05-18T11:44:25.027Z,18.98
2016-05-18T11:45:22.140Z,18.98
2016-05-18T11:46:21.907Z,18.92
2016-05-18T11:47:24.879Z,18.92
2016-05-18T11:48:21.632Z,18.98
2016-05-18T11:49:21.759Z,19.01
2016-05-18T11:50:21.732Z,18.86
2016-05-18T11:51:21.671Z,18.85
2016-05-18T11:52:21.642Z,18.88
2016-05-18T11:53:21.865Z,18.86
2016-05-18T11:54:21.570Z,18.89
2016-05-18T11:55:21.479Z,18.92
2016-05-18T11:56:21.325Z,18.92
2016-05-18T11:57:21.437Z,18.98
2016-05-18T11:58:24.393Z,18.97
2016-05-18T11:59:21.333Z,18.98
2016-05-18T12:00:21.461Z,19.01
2016-05-18T12:01:21.276Z,18.94
2016-05-18T12:02:20.857Z,18.97
2016-05-18T12:03:21.547Z,19.04
2016-05-18T12:04:21.113Z,19.19
2016-05-18T12:05:21.397Z,19.23
2016-05-18T12:06:20.914Z,19.29
2016-05-18T12:07:21.167Z,19.41
2016-05-18T12:08:21.202Z,19.48
2016-05-18T12:09:21.110Z,19.62
2016-05-18T12:10:20.816Z,19.64
2016-05-18T12:11:20.678Z,19.72
2016-05-18T12:12:21.041Z,19.82
2016-05-18T12:13:20.730Z,19.85
2016-05-18T12:14:20.468Z,19.89
2016-05-18T12:15:20.610Z,19.94
2016-05-18T12:16:20.551Z,19.99
2016-05-18T12:17:20.944Z,20.1
2016-05-18T12:18:20.853Z,20.15
2016-05-18T12:19:20.497Z,20.11
2016-05-18T12:20:21.171Z,20.26
2016-05-18T12:21:20.376Z,20.15
2016-05-18T12:22:20.599Z,20.24
2016-05-18T12:23:23.585Z,20.24
2016-05-18T12:24:21.134Z,20.29
2016-05-18T12:25:20.185Z,20.27
2016-05-18T12:26:20.187Z,20.33
2016-05-18T12:27:23.268Z,20.24
2016-05-18T12:28:20.052Z,20.15
2016-05-18T12:29:19.976Z,20.17
2016-05-18T12:30:23.058Z,20.04
2016-05-18T12:31:25.903Z,20.07
2016-05-18T12:32:20.109Z,19.94
2016-05-18T12:33:20.191Z,19.82
2016-05-18T12:34:19.989Z,19.84
2016-05-18T12:35:19.931Z,19.85
2016-05-18T12:36:19.933Z,19.81
2016-05-18T12:37:19.826Z,19.75
2016-05-18T12:38:20.048Z,19.71
2016-05-18T12:39:19.769Z,19.78
2016-05-18T12:40:20.115Z,19.89
2016-05-18T12:41:22.712Z,19.9
2016-05-18T12:42:19.371Z,19.93
2016-05-18T12:43:19.546Z,19.97
2016-05-18T12:44:19.313Z,20.08
2016-05-18T12:45:22.535Z,20.17
2016-05-18T12:46:19.085Z,20.14
2016-05-18T12:47:22.135Z,20.3
2016-05-18T12:48:19.434Z,20.26
2016-05-18T12:49:19.139Z,20.36
2016-05-18T12:50:25.346Z,20.39
2016-05-18T12:51:19.582Z,20.4
2016-05-18T12:52:19.054Z,20.58
2016-05-18T12:53:19.620Z,20.52
2016-05-18T12:54:22.075Z,20.64